createdAt,value
2017-12-17T00:00:16.911Z,4.97
2017-12-17T00:02:44.209Z,10.07
2017-12-17T00:05:10.773Z,11.63
2017-12-17T00:07:38.375Z,11.40
2017-12-17T00:10:04.899Z,5.37
2017-12-17T00:12:32.330Z,8.17
2017-12-17T00:14:58.757Z,12.93
2017-12-17T00:17:25.560Z,4.57
2017-12-17T00:19:51.949Z,3.93
2017-12-17T00:22:18.334Z,6.10
2017-12-17T00:24:44.757Z,6.97
2017-12-17T00:27:11.196Z,4.40
2017-12-17T00:29:37.640Z,2.93
2017-12-17T00:32:04.660Z,2.40
2017-12-17T00:34:31.112Z,3.33
2017-12-17T00:36:57.721Z,2.03
2017-12-17T00:39:24.860Z,1.70
2017-12-17T00:41:51.226Z,3.87
2017-12-17T00:44:17.665Z,4.00
2017-12-17T00:46:44.052Z,1.63
2017-12-17T00:49:10.489Z,2.90
2017-12-17T00:51:38.533Z,1.47
2017-12-17T00:54:05.013Z,1.80
2017-12-17T00:56:31.338Z,1.60
2017-12-17T00:58:58.571Z,1.80
2017-12-17T01:01:25.175Z,4.60
2017-12-17T01:03:51.651Z,1.93
2017-12-17T01:06:18.998Z,1.80
2017-12-17T01:08:45.478Z,1.53
2017-12-17T01:11:12.951Z,1.70
2017-12-17T01:13:39.352Z,3.23
2017-12-17T01:16:05.823Z,3.67
2017-12-17T01:18:32.220Z,1.37
2017-12-17T01:20:58.853Z,4.00
2017-12-17T01:23:25.465Z,3.37
2017-12-17T01:25:51.881Z,1.60
2017-12-17T01:28:19.746Z,1.90
2017-12-17T01:30:46.104Z,1.90
2017-12-17T01:33:12.540Z,1.50
2017-12-17T01:35:39.066Z,1.40
2017-12-17T01:38:05.602Z,4.30
2017-12-17T01:40:31.957Z,1.60
2017-12-17T01:42:58.550Z,2.97
2017-12-17T01:45:25.331Z,1.20
2017-12-17T01:47:51.930Z,1.23
2017-12-17T01:50:19.443Z,2.03
2017-12-17T01:52:47.409Z,1.00
2017-12-17T01:55:14.092Z,2.00
2017-12-17T01:57:40.864Z,1.90
2017-12-17T02:00:08.253Z,1.40
2017-12-17T02:02:34.678Z,1.37
2017-12-17T02:05:01.501Z,1.50
2017-12-17T02:07:27.930Z,1.30
2017-12-17T02:09:55.191Z,1.33
2017-12-17T02:12:21.645Z,1.20
2017-12-17T02:14:48.072Z,1.30
2017-12-17T02:20:15.252Z,3.70
2017-12-17T02:22:42.707Z,1.50
2017-12-17T02:25:09.091Z,1.50
2017-12-17T02:27:35.579Z,1.33
2017-12-17T02:30:01.948Z,2.77
2017-12-17T02:32:28.360Z,1.83
2017-12-17T02:34:54.861Z,1.50
2017-12-17T02:37:21.293Z,4.17
2017-12-17T02:39:47.727Z,5.60
2017-12-17T02:42:14.341Z,2.03
2017-12-17T02:44:41.818Z,1.93
2017-12-17T02:47:08.268Z,2.07
2017-12-17T02:49:34.688Z,3.83
2017-12-17T02:52:01.178Z,3.13
2017-12-17T02:54:27.658Z,4.50
2017-12-17T02:56:54.042Z,2.37
2017-12-17T02:59:21.097Z,3.60
2017-12-17T03:01:48.384Z,2.67
2017-12-17T03:04:15.061Z,2.93
2017-12-17T03:06:41.528Z,4.43
2017-12-17T03:09:08.186Z,10.10
2017-12-17T03:11:34.892Z,12.47
2017-12-17T03:14:01.340Z,5.10
2017-12-17T03:16:28.456Z,5.43
2017-12-17T03:18:55.314Z,7.43
2017-12-17T03:21:21.818Z,2.43
2017-12-17T03:23:48.225Z,3.70
2017-12-17T03:26:14.728Z,3.77
2017-12-17T03:28:41.882Z,4.20
2017-12-17T03:31:08.305Z,3.53
2017-12-17T03:33:34.717Z,4.60
2017-12-17T03:36:01.658Z,4.43
2017-12-17T03:38:28.135Z,3.13
2017-12-17T03:40:54.560Z,2.83
2017-12-17T03:43:21.101Z,2.63
2017-12-17T03:45:47.987Z,4.60
2017-12-17T03:48:14.401Z,3.60
2017-12-17T03:50:41.591Z,4.00
2017-12-17T03:53:08.873Z,3.20
2017-12-17T03:55:36.345Z,4.37
2017-12-17T03:58:03.077Z,4.50
2017-12-17T04:00:29.573Z,12.30
2017-12-17T04:02:56.989Z,3.13
2017-12-17T04:05:23.998Z,2.90
2017-12-17T04:07:50.470Z,10.50
2017-12-17T04:10:17.151Z,5.47
2017-12-17T04:12:44.384Z,2.63
2017-12-17T04:15:10.759Z,1.90
2017-12-17T04:17:37.411Z,2.90
2017-12-17T04:20:04.654Z,3.33
2017-12-17T04:22:31.205Z,1.93
2017-12-17T04:24:57.600Z,1.73
2017-12-17T04:27:24.413Z,2.10
2017-12-17T04:29:51.721Z,3.53
2017-12-17T04:32:18.729Z,2.20
2017-12-17T04:34:46.326Z,2.00
2017-12-17T04:37:12.719Z,1.90
2017-12-17T04:39:39.252Z,3.23
2017-12-17T04:42:05.777Z,2.20
2017-12-17T04:44:33.046Z,1.93
2017-12-17T04:46:59.580Z,5.83
2017-12-17T04:49:26.029Z,2.10
2017-12-17T04:51:52.663Z,1.80
2017-12-17T04:54:19.265Z,2.90
2017-12-17T04:56:46.035Z,1.83
2017-12-17T04:59:12.460Z,3.07
2017-12-17T05:01:40.147Z,1.77
2017-12-17T05:04:07.372Z,2.10
2017-12-17T05:06:33.800Z,1.73
2017-12-17T05:09:01.218Z,1.87
2017-12-17T05:11:27.608Z,2.40
2017-12-17T05:13:54.089Z,3.00
2017-12-17T05:16:20.768Z,2.50
2017-12-17T05:18:47.216Z,1.90
2017-12-17T05:21:13.660Z,2.17
2017-12-17T05:23:40.907Z,2.00
2017-12-17T05:26:07.373Z,6.33
2017-12-17T05:28:33.847Z,1.57
2017-12-17T05:31:00.309Z,7.70
2017-12-17T05:33:26.709Z,5.23
2017-12-17T05:35:53.932Z,4.50
2017-12-17T05:38:20.343Z,1.97
2017-12-17T05:40:46.823Z,2.40
2017-12-17T05:43:13.877Z,4.10
2017-12-17T05:45:40.328Z,3.33
2017-12-17T05:48:06.821Z,1.83
2017-12-17T05:50:33.348Z,5.67
2017-12-17T05:53:00.036Z,5.03
2017-12-17T05:55:26.523Z,18.60
2017-12-17T05:57:54.563Z,2.13
2017-12-17T06:00:21.228Z,3.13
2017-12-17T06:02:48.349Z,2.80
2017-12-17T06:05:14.813Z,4.30
2017-12-17T06:07:41.376Z,2.20
2017-12-17T06:10:07.801Z,2.10
2017-12-17T06:12:34.201Z,2.13
2017-12-17T06:15:00.674Z,2.30
2017-12-17T06:17:27.196Z,2.17
2017-12-17T06:19:53.623Z,4.27
2017-12-17T06:22:20.163Z,2.37
2017-12-17T06:24:47.093Z,6.83
2017-12-17T06:27:15.989Z,5.50
2017-12-17T06:29:43.512Z,1.80
2017-12-17T06:32:11.638Z,1.70
2017-12-17T06:34:38.120Z,1.80
2017-12-17T06:37:05.105Z,1.97
2017-12-17T06:39:33.083Z,1.50
2017-12-17T06:41:59.543Z,1.97
2017-12-17T06:44:29.084Z,2.27
2017-12-17T06:46:55.738Z,2.63
2017-12-17T06:49:22.607Z,1.97
2017-12-17T06:51:49.871Z,2.50
2017-12-17T06:54:16.414Z,3.03
2017-12-17T06:56:47.049Z,4.20
2017-12-17T06:59:14.913Z,2.20
2017-12-17T07:01:42.838Z,4.00
2017-12-17T07:04:09.716Z,3.27
2017-12-17T07:06:37.762Z,5.73
2017-12-17T07:09:04.378Z,2.33
2017-12-17T07:11:31.609Z,2.73
2017-12-17T07:13:58.431Z,2.50
2017-12-17T07:16:25.209Z,1.70
2017-12-17T07:18:52.913Z,2.53
2017-12-17T07:21:20.358Z,2.40
2017-12-17T07:23:48.400Z,2.07
2017-12-17T07:26:15.115Z,7.80
2017-12-17T07:28:43.353Z,2.07
2017-12-17T07:31:11.529Z,2.30
2017-12-17T07:33:38.163Z,3.43
2017-12-17T07:36:05.610Z,2.50
2017-12-17T07:38:32.814Z,2.63
2017-12-17T07:40:59.619Z,2.70
2017-12-17T07:43:26.216Z,2.67
2017-12-17T07:45:52.945Z,3.10
2017-12-17T07:48:19.413Z,3.63
2017-12-17T07:50:46.525Z,2.30
2017-12-17T07:53:13.196Z,1.93
2017-12-17T07:55:39.706Z,4.90
2017-12-17T07:58:06.514Z,3.73
2017-12-17T08:00:33.758Z,2.83
2017-12-17T08:03:00.160Z,5.50
2017-12-17T08:05:26.559Z,3.20
2017-12-17T08:07:52.992Z,7.80
2017-12-17T08:10:19.432Z,3.03
2017-12-17T08:12:46.216Z,2.43
2017-12-17T08:15:13.596Z,3.33
2017-12-17T08:17:40.965Z,2.47
2017-12-17T08:20:07.607Z,6.30
2017-12-17T08:22:33.993Z,2.83
2017-12-17T08:25:00.418Z,4.20
2017-12-17T08:27:26.854Z,3.23
2017-12-17T08:29:53.358Z,2.07
2017-12-17T08:32:19.713Z,3.83
2017-12-17T08:34:49.010Z,4.30
2017-12-17T08:37:15.558Z,2.37
2017-12-17T08:39:42.132Z,2.80
2017-12-17T08:42:08.729Z,2.50
2017-12-17T08:44:35.303Z,3.90
2017-12-17T08:47:01.857Z,5.07
2017-12-17T08:49:28.338Z,2.57
2017-12-17T08:51:55.097Z,2.73
2017-12-17T08:54:21.512Z,2.20
2017-12-17T08:56:47.911Z,2.50
2017-12-17T08:59:14.581Z,3.97
2017-12-17T09:01:41.818Z,2.37
2017-12-17T09:04:12.689Z,2.50
2017-12-17T09:06:39.131Z,2.60
2017-12-17T09:09:05.619Z,2.60
2017-12-17T09:11:33.183Z,1.90
2017-12-17T09:14:00.732Z,1.80
2017-12-17T09:16:28.142Z,2.10
2017-12-17T09:18:54.663Z,4.13
2017-12-17T09:21:21.254Z,3.20
2017-12-17T09:23:47.646Z,5.83
2017-12-17T09:26:14.149Z,2.40
2017-12-17T09:28:41.194Z,2.37
2017-12-17T09:31:09.117Z,2.70
2017-12-17T09:33:36.363Z,2.40
2017-12-17T09:36:06.304Z,6.63
2017-12-17T09:38:32.823Z,2.30
2017-12-17T09:41:00.144Z,1.90
2017-12-17T09:43:26.637Z,3.00
2017-12-17T09:45:53.024Z,2.83
2017-12-17T09:48:19.799Z,2.60
2017-12-17T09:50:46.641Z,3.50
2017-12-17T09:53:13.173Z,2.20
2017-12-17T09:55:40.486Z,2.73
2017-12-17T09:58:07.151Z,2.37
2017-12-17T10:00:33.641Z,4.67
2017-12-17T10:03:00.757Z,2.40
2017-12-17T10:05:27.220Z,2.13
2017-12-17T10:07:54.027Z,2.80
2017-12-17T10:10:21.734Z,2.90
2017-12-17T10:12:48.270Z,2.87
2017-12-17T10:15:15.177Z,2.07
2017-12-17T10:17:41.754Z,3.77
2017-12-17T10:20:08.295Z,2.90
2017-12-17T10:22:34.766Z,3.53
2017-12-17T10:25:01.201Z,2.43
2017-12-17T10:27:27.702Z,4.10
2017-12-17T10:29:54.154Z,2.70
2017-12-17T10:32:20.626Z,2.63
2017-12-17T10:34:47.137Z,2.10
2017-12-17T10:37:13.621Z,2.27
2017-12-17T10:39:40.057Z,2.07
2017-12-17T10:42:06.459Z,2.50
2017-12-17T10:44:32.892Z,2.90
2017-12-17T10:46:59.354Z,2.07
2017-12-17T10:49:25.783Z,2.30
2017-12-17T10:51:54.127Z,2.00
2017-12-17T10:54:20.735Z,2.10
2017-12-17T10:56:47.130Z,2.40
2017-12-17T10:59:15.820Z,2.13
2017-12-17T11:01:42.382Z,1.93
2017-12-17T11:04:09.939Z,2.53
2017-12-17T11:06:36.474Z,2.20
2017-12-17T11:09:02.985Z,2.40
2017-12-17T11:11:29.681Z,2.97
2017-12-17T11:13:56.340Z,2.57
2017-12-17T11:16:23.154Z,2.57
2017-12-17T11:18:49.634Z,2.27
2017-12-17T11:21:16.141Z,2.67
2017-12-17T11:23:43.107Z,2.00
2017-12-17T11:26:09.827Z,2.33
2017-12-17T11:28:36.433Z,2.33
2017-12-17T11:31:03.252Z,2.30
2017-12-17T11:33:30.016Z,2.30
2017-12-17T11:35:56.386Z,2.57
2017-12-17T11:38:22.823Z,2.70
2017-12-17T11:40:49.269Z,5.50
2017-12-17T11:43:16.061Z,2.60
2017-12-17T11:45:42.604Z,3.10
2017-12-17T11:48:09.139Z,5.13
2017-12-17T11:50:35.590Z,2.20
2017-12-17T11:53:02.048Z,4.20
2017-12-17T11:55:28.586Z,3.30
2017-12-17T11:57:55.194Z,3.03
2017-12-17T12:00:21.830Z,2.83
2017-12-17T12:02:48.304Z,2.90
2017-12-17T12:05:16.114Z,2.43
2017-12-17T12:07:42.830Z,2.97
2017-12-17T12:10:09.324Z,3.63
2017-12-17T12:12:36.107Z,2.43
2017-12-17T12:15:03.677Z,2.90
2017-12-17T12:17:30.176Z,3.10
2017-12-17T12:19:56.594Z,2.67
2017-12-17T12:22:23.113Z,5.00
2017-12-17T12:24:49.580Z,2.67
2017-12-17T12:27:16.174Z,2.50
2017-12-17T12:29:42.864Z,2.77
2017-12-17T12:32:09.777Z,3.33
2017-12-17T12:34:36.312Z,2.80
2017-12-17T12:37:02.930Z,2.60
2017-12-17T12:39:30.533Z,4.70
2017-12-17T12:41:57.304Z,4.30
2017-12-17T12:44:23.903Z,3.30
2017-12-17T12:46:50.365Z,6.20
2017-12-17T12:49:16.842Z,3.33
2017-12-17T12:51:44.150Z,2.40
2017-12-17T12:54:10.720Z,6.37
2017-12-17T12:56:39.874Z,4.60
2017-12-17T12:59:06.479Z,3.13
2017-12-17T13:01:32.929Z,3.73
2017-12-17T13:03:59.368Z,3.20
2017-12-17T13:06:25.977Z,3.70
2017-12-17T13:08:53.137Z,3.43
2017-12-17T13:11:19.837Z,3.40
2017-12-17T13:13:47.192Z,4.17
2017-12-17T13:16:13.764Z,3.90
2017-12-17T13:18:42.127Z,2.33
2017-12-17T13:21:08.576Z,3.00
2017-12-17T13:23:35.079Z,2.97
2017-12-17T13:26:01.792Z,2.97
2017-12-17T13:28:28.910Z,2.63
2017-12-17T13:30:55.583Z,3.10
2017-12-17T13:33:22.121Z,2.90
2017-12-17T13:35:49.923Z,2.30
2017-12-17T13:38:16.438Z,2.60
2017-12-17T13:40:43.796Z,2.17
2017-12-17T13:43:10.528Z,2.73
2017-12-17T13:45:37.176Z,2.40
2017-12-17T13:48:04.157Z,2.77
2017-12-17T13:50:30.690Z,2.70
2017-12-17T13:52:57.157Z,3.07
2017-12-17T13:55:23.698Z,3.13
2017-12-17T13:57:50.214Z,3.20
2017-12-17T14:00:16.833Z,4.50
2017-12-17T14:02:43.251Z,3.03
2017-12-17T14:05:09.732Z,6.37
2017-12-17T14:07:36.480Z,4.00
2017-12-17T14:10:03.972Z,5.50
2017-12-17T14:12:30.423Z,3.93
2017-12-17T14:14:56.922Z,3.53
2017-12-17T14:17:23.554Z,4.77
2017-12-17T14:19:50.158Z,4.37
2017-12-17T14:22:16.881Z,4.23
2017-12-17T14:24:43.358Z,6.13
2017-12-17T14:27:09.808Z,5.97
2017-12-17T14:29:36.531Z,5.03
2017-12-17T14:32:02.972Z,5.00
2017-12-17T14:34:29.565Z,5.03
2017-12-17T14:36:56.798Z,5.30
2017-12-17T14:39:23.920Z,5.40
2017-12-17T14:41:50.417Z,6.10
2017-12-17T14:44:16.924Z,8.47
2017-12-17T14:46:43.414Z,4.73
2017-12-17T14:49:09.949Z,5.93
2017-12-17T14:51:36.393Z,4.53
2017-12-17T14:54:02.852Z,4.10
2017-12-17T14:56:30.813Z,4.70
2017-12-17T14:58:59.061Z,3.90
2017-12-17T15:01:25.469Z,4.70
2017-12-17T15:03:52.060Z,4.27
2017-12-17T15:06:18.473Z,4.13
2017-12-17T15:08:45.146Z,4.47
2017-12-17T15:11:11.612Z,5.57
2017-12-17T15:13:39.172Z,5.17
2017-12-17T15:16:05.598Z,4.50
2017-12-17T15:18:32.978Z,5.37
2017-12-17T15:20:59.477Z,5.60
2017-12-17T15:23:25.984Z,6.77
2017-12-17T15:25:52.424Z,4.63
2017-12-17T15:28:20.892Z,5.30
2017-12-17T15:30:47.319Z,5.30
2017-12-17T15:33:13.854Z,5.47
2017-12-17T15:35:40.226Z,4.57
2017-12-17T15:38:06.693Z,5.67
2017-12-17T15:40:33.178Z,4.70
2017-12-17T15:42:59.762Z,4.57
2017-12-17T15:45:26.396Z,4.47
2017-12-17T15:47:53.685Z,4.27
2017-12-17T15:50:20.181Z,6.30
2017-12-17T15:52:46.928Z,6.33
2017-12-17T15:55:14.152Z,5.83
2017-12-17T15:57:40.510Z,5.50
2017-12-17T16:00:06.947Z,4.77
2017-12-17T16:02:34.364Z,4.50
2017-12-17T16:05:00.866Z,6.07
2017-12-17T16:07:28.045Z,4.73
2017-12-17T16:09:55.358Z,5.60
2017-12-17T16:12:21.922Z,8.20
2017-12-17T16:14:48.448Z,4.67
2017-12-17T16:17:15.748Z,6.80
2017-12-17T16:19:42.272Z,7.23
2017-12-17T16:22:09.913Z,6.77
2017-12-17T16:24:36.570Z,5.13
2017-12-17T16:27:02.960Z,4.77
2017-12-17T16:29:29.381Z,6.30
2017-12-17T16:31:56.174Z,7.07
2017-12-17T16:34:22.637Z,4.90
2017-12-17T16:36:49.102Z,5.80
2017-12-17T16:39:16.037Z,7.30
2017-12-17T16:41:42.448Z,4.60
2017-12-17T16:44:08.879Z,6.77
2017-12-17T16:46:35.389Z,11.27
2017-12-17T16:49:01.959Z,7.17
2017-12-17T16:51:28.484Z,6.27
2017-12-17T16:53:55.321Z,6.03
2017-12-17T16:56:22.810Z,7.17
2017-12-17T16:58:49.284Z,7.80
2017-12-17T17:01:15.953Z,6.23
2017-12-17T17:03:43.172Z,7.43
2017-12-17T17:06:09.577Z,8.50
2017-12-17T17:08:36.261Z,9.83
2017-12-17T17:11:03.707Z,8.27
2017-12-17T17:13:30.170Z,8.07
2017-12-17T17:15:58.073Z,7.60
2017-12-17T17:18:25.646Z,14.50
2017-12-17T17:20:52.100Z,11.87
2017-12-17T17:23:18.485Z,10.60
2017-12-17T17:25:45.085Z,8.50
2017-12-17T17:28:11.535Z,7.63
2017-12-17T17:30:38.533Z,9.13
2017-12-17T17:33:05.190Z,9.17
2017-12-17T17:35:32.054Z,11.33
2017-12-17T17:37:58.797Z,19.90
2017-12-17T17:40:25.239Z,17.67
2017-12-17T17:42:51.711Z,14.23
2017-12-17T17:45:19.972Z,10.37
2017-12-17T17:47:47.095Z,13.07
2017-12-17T17:50:13.614Z,11.10
2017-12-17T17:52:41.152Z,8.10
2017-12-17T17:55:08.499Z,8.67
2017-12-17T17:57:36.847Z,8.63
2017-12-17T18:00:03.412Z,8.53
2017-12-17T18:02:29.876Z,11.20
2017-12-17T18:04:57.726Z,13.57
2017-12-17T18:07:24.748Z,11.93
2017-12-17T18:09:51.240Z,13.53
2017-12-17T18:12:18.210Z,12.10
2017-12-17T18:14:47.970Z,9.83
2017-12-17T18:17:15.325Z,11.80
2017-12-17T18:19:42.858Z,9.33
2017-12-17T18:22:09.585Z,8.50
2017-12-17T18:24:36.057Z,11.27
2017-12-17T18:27:02.447Z,13.17
2017-12-17T18:29:29.263Z,14.30
2017-12-17T18:31:55.768Z,12.70
2017-12-17T18:34:22.196Z,12.73
2017-12-17T18:36:49.227Z,11.40
2017-12-17T18:39:15.686Z,11.30
2017-12-17T18:41:42.210Z,9.23
2017-12-17T18:44:08.911Z,12.17
2017-12-17T18:46:35.587Z,12.93
2017-12-17T18:49:02.363Z,10.87
2017-12-17T18:51:29.157Z,10.40
2017-12-17T18:53:57.151Z,12.47
2017-12-17T18:56:23.522Z,14.03
2017-12-17T18:58:49.974Z,13.90
2017-12-17T19:01:17.193Z,15.17
2017-12-17T19:03:43.689Z,16.63
2017-12-17T19:06:10.130Z,16.00
2017-12-17T19:08:36.699Z,14.07
2017-12-17T19:11:03.797Z,19.10
2017-12-17T19:13:30.742Z,16.77
2017-12-17T19:15:57.537Z,18.90
2017-12-17T19:18:24.014Z,18.00
2017-12-17T19:20:50.448Z,13.50
2017-12-17T19:23:16.897Z,15.83
2017-12-17T19:25:43.572Z,15.40
2017-12-17T19:28:11.743Z,16.97
2017-12-17T19:30:38.460Z,13.37
2017-12-17T19:33:06.581Z,15.73
2017-12-17T19:35:33.802Z,15.80
2017-12-17T19:38:01.686Z,19.70
2017-12-17T19:40:29.903Z,20.13
2017-12-17T19:42:57.657Z,21.77
2017-12-17T19:45:24.268Z,18.90
2017-12-17T19:47:51.786Z,20.70
2017-12-17T19:50:18.346Z,21.73
2017-12-17T19:52:45.148Z,22.40
2017-12-17T19:55:11.821Z,19.10
2017-12-17T19:57:39.554Z,23.07
2017-12-17T20:00:06.041Z,23.67
2017-12-17T20:05:06.055Z,26.23
2017-12-17T20:07:33.321Z,27.90
2017-12-17T20:09:59.755Z,26.30
2017-12-17T20:12:26.244Z,26.67
2017-12-17T20:14:52.721Z,25.90
2017-12-17T20:17:19.187Z,22.43
2017-12-17T20:19:46.279Z,22.30
2017-12-17T20:22:12.663Z,23.47
2017-12-17T20:24:39.099Z,21.13
2017-12-17T20:27:05.547Z,23.63
2017-12-17T20:29:31.895Z,25.00
2017-12-17T20:31:59.174Z,22.00
2017-12-17T20:34:27.112Z,21.40
2017-12-17T20:36:53.756Z,20.03
2017-12-17T20:39:21.977Z,21.03
2017-12-17T20:41:48.451Z,30.93
2017-12-17T20:44:14.953Z,23.43
2017-12-17T20:46:41.518Z,23.23
2017-12-17T20:49:07.857Z,24.40
2017-12-17T20:51:34.189Z,19.23
2017-12-17T20:54:00.580Z,23.50
2017-12-17T20:56:27.786Z,23.53
2017-12-17T20:58:54.235Z,24.77
2017-12-17T21:01:21.560Z,24.57
2017-12-17T21:03:48.095Z,23.23
2017-12-17T21:06:14.742Z,22.13
2017-12-17T21:08:41.281Z,24.87
2017-12-17T21:11:07.763Z,22.53
2017-12-17T21:13:34.264Z,22.10
2017-12-17T21:16:01.040Z,23.10
2017-12-17T21:18:27.722Z,18.30
2017-12-17T21:20:54.428Z,23.43
2017-12-17T21:23:22.122Z,21.83
2017-12-17T21:25:48.638Z,25.87
2017-12-17T21:28:14.971Z,22.40
2017-12-17T21:30:41.445Z,21.90
2017-12-17T21:33:07.939Z,30.63
2017-12-17T21:35:34.553Z,25.80
2017-12-17T21:38:00.987Z,28.67
2017-12-17T21:40:27.451Z,28.23
2017-12-17T21:42:53.848Z,28.30
2017-12-17T21:45:20.342Z,30.47
2017-12-17T21:47:46.845Z,30.83
2017-12-17T21:50:13.347Z,26.83
2017-12-17T21:52:39.873Z,24.03
2017-12-17T21:55:06.629Z,30.53
2017-12-17T21:57:33.135Z,30.90
2017-12-17T22:00:00.238Z,26.60
2017-12-17T22:02:26.689Z,24.33
2017-12-17T22:04:53.293Z,26.63
2017-12-17T22:07:19.830Z,29.93
2017-12-17T22:09:46.211Z,29.80
2017-12-17T22:12:12.688Z,22.60
2017-12-17T22:14:39.777Z,27.60
2017-12-17T22:17:06.372Z,27.63
2017-12-17T22:19:32.794Z,27.90
2017-12-17T22:21:59.160Z,24.63
2017-12-17T22:24:25.570Z,28.50
2017-12-17T22:26:51.957Z,26.73
2017-12-17T22:29:18.329Z,33.50
2017-12-17T22:31:44.876Z,20.90
2017-12-17T22:34:11.370Z,22.40
2017-12-17T22:36:37.668Z,24.13
2017-12-17T22:39:04.212Z,28.63
2017-12-17T22:41:30.691Z,25.27
2017-12-17T22:43:57.812Z,22.97
2017-12-17T22:46:24.332Z,23.63
2017-12-17T22:48:50.820Z,20.17
2017-12-17T22:51:17.435Z,25.30
2017-12-17T22:53:43.822Z,21.43
2017-12-17T22:56:10.223Z,25.10
2017-12-17T22:58:36.623Z,21.67
2017-12-17T23:01:03.020Z,22.57
2017-12-17T23:03:29.424Z,30.53
2017-12-17T23:05:55.838Z,26.73
2017-12-17T23:08:22.292Z,29.77
2017-12-17T23:10:48.667Z,26.30
2017-12-17T23:13:15.145Z,22.13
2017-12-17T23:15:41.581Z,23.63
2017-12-17T23:18:07.992Z,19.60
2017-12-17T23:20:34.397Z,16.33
2017-12-17T23:23:00.816Z,22.20
2017-12-17T23:25:27.148Z,18.93
2017-12-17T23:27:53.550Z,15.87
2017-12-17T23:30:19.957Z,13.97
2017-12-17T23:32:46.374Z,15.90
2017-12-17T23:35:12.770Z,22.90
2017-12-17T23:37:39.174Z,15.63
2017-12-17T23:40:06.329Z,17.10
2017-12-17T23:42:32.765Z,23.20
2017-12-17T23:44:59.189Z,16.83
2017-12-17T23:47:26.316Z,16.70
2017-12-17T23:49:52.670Z,17.77
2017-12-17T23:52:19.151Z,16.37
2017-12-17T23:54:45.551Z,17.20
2017-12-17T23:57:12.011Z,20.63
2017-12-17T23:59:38.514Z,23.87
